Time;durP1;ratioP1;P1;durP2;ratioP2;P2;SDS_P1;SDS_P2;PMS_P1;PMS_P2;Temp;Humidity;BMP_temperature;BMP_pressure;BME280_temperature;BME280_humidity;BME280_pressure;Samples;Min_cycle;Max_cycle;Signal;HPM_P1;HPM_P2
2021/12/19 00:02:20;;;;;;;4.50;4.17;;;20.40;40.80;;;;;;5045482;28;20521;-64
2021/12/19 00:08:28;;;;;;;4.57;4.17;;;20.40;40.80;;;;;;5041946;28;21031;-64
2021/12/19 00:10:26;;;;;;;5.10;4.60;;;20.30;40.80;;;;;;5039268;28;20454;-65
2021/12/19 00:12:52;;;;;;;4.53;4.20;;;20.30;40.80;;;;;;5042919;28;20432;-64
2021/12/19 00:15:18;;;;;;;4.07;3.77;;;20.30;40.70;;;;;;5039990;28;20759;-64
2021/12/19 00:17:44;;;;;;;4.63;4.33;;;20.30;40.80;;;;;;5038504;28;20548;-64
2021/12/19 00:20:10;;;;;;;4.60;4.20;;;20.30;40.90;;;;;;5038956;28;20273;-64
2021/12/19 00:22:35;;;;;;;5.40;3.73;;;20.30;40.90;;;;;;5043410;28;20219;-64
2021/12/19 00:25:01;;;;;;;4.70;4.40;;;20.30;40.80;;;;;;5039917;28;20659;-64
2021/12/19 00:27:27;;;;;;;3.73;3.43;;;20.30;40.90;;;;;;5044724;28;20234;-64
2021/12/19 00:29:52;;;;;;;4.10;3.80;;;20.30;41.00;;;;;;5038294;28;20671;-64
2021/12/19 00:32:18;;;;;;;4.23;3.83;;;20.30;40.90;;;;;;5039121;28;20226;-64
2021/12/19 00:34:44;;;;;;;4.03;3.73;;;20.20;40.80;;;;;;5038132;28;20602;-64
2021/12/19 00:37:10;;;;;;;3.63;3.33;;;20.20;40.90;;;;;;5043982;28;20235;-64
2021/12/19 00:39:36;;;;;;;4.07;3.53;;;20.20;40.90;;;;;;5043752;28;20214;-64
2021/12/19 00:42:07;;;;;;;4.20;3.80;;;20.20;40.90;;;;;;5041544;28;20455;-64
2021/12/19 00:44:34;;;;;;;3.50;3.30;;;20.20;40.90;;;;;;5034698;28;20234;-64
2021/12/19 00:47:07;;;;;;;3.50;3.20;;;20.20;40.90;;;;;;5041142;28;20458;-64
2021/12/19 00:49:34;;;;;;;3.20;3.00;;;20.20;40.90;;;;;;5039984;28;20444;-64
2021/12/19 00:52:01;;;;;;;4.30;3.97;;;20.20;41.00;;;;;;5038381;28;20461;-64
2021/12/19 00:54:27;;;;;;;3.37;3.17;;;20.20;40.90;;;;;;5038194;28;21440;-64
2021/12/19 00:56:53;;;;;;;3.67;3.40;;;20.20;40.90;;;;;;5038759;28;20460;-64
2021/12/19 00:59:20;;;;;;;3.03;2.83;;;20.20;41.00;;;;;;5039162;28;20443;-64
2021/12/19 01:01:46;;;;;;;3.90;3.60;;;20.20;41.00;;;;;;5037843;28;20444;-64
2021/12/19 01:04:14;;;;;;;4.07;3.40;;;20.20;41.00;;;;;;5038766;28;20423;-64
2021/12/19 01:06:42;;;;;;;3.70;3.40;;;20.10;40.90;;;;;;5039053;28;20815;-64
2021/12/19 01:09:08;;;;;;;4.47;4.17;;;20.10;40.90;;;;;;5039503;28;20798;-64
2021/12/19 01:11:35;;;;;;;4.23;3.93;;;20.10;40.90;;;;;;5043866;28;20455;-64
2021/12/19 01:14:02;;;;;;;4.27;3.87;;;20.10;40.90;;;;;;5042002;28;20448;-64
2021/12/19 01:16:28;;;;;;;3.40;3.20;;;20.10;40.90;;;;;;5036490;28;20473;-64
2021/12/19 01:18:53;;;;;;;4.00;3.77;;;20.10;40.90;;;;;;5040749;28;20474;-64
2021/12/19 01:21:19;;;;;;;3.50;3.20;;;20.10;41.00;;;;;;5036282;28;20219;-64
2021/12/19 01:23:45;;;;;;;3.57;3.37;;;20.10;41.00;;;;;;5040497;28;20669;-64
2021/12/19 01:26:11;;;;;;;3.33;3.10;;;20.10;41.00;;;;;;5039793;28;20238;-64
2021/12/19 01:28:37;;;;;;;3.50;3.20;;;20.10;41.00;;;;;;5040512;28;20449;-64
2021/12/19 01:31:04;;;;;;;3.60;3.40;;;20.10;41.10;;;;;;5039205;28;20448;-64
2021/12/19 01:33:29;;;;;;;3.37;3.17;;;20.10;41.00;;;;;;5037843;28;20560;-64
2021/12/19 01:35:55;;;;;;;3.50;3.30;;;20.10;41.10;;;;;;5039566;28;21168;-64
2021/12/19 01:38:21;;;;;;;3.03;2.83;;;20.10;41.00;;;;;;5039777;28;20588;-64
2021/12/19 01:40:46;;;;;;;3.30;3.10;;;20.10;41.00;;;;;;5038141;28;20222;-64
2021/12/19 01:43:12;;;;;;;3.20;2.90;;;20.10;41.00;;;;;;5041129;28;20698;-64
2021/12/19 01:45:40;;;;;;;2.53;2.43;;;20.10;41.10;;;;;;5039384;28;20232;-64
2021/12/19 01:48:09;;;;;;;3.10;2.90;;;20.10;41.00;;;;;;5043288;28;20230;-64
2021/12/19 01:50:36;;;;;;;3.00;2.80;;;20.10;41.80;;;;;;5035438;28;20772;-64
2021/12/19 01:53:05;;;;;;;3.43;3.20;;;20.00;41.00;;;;;;5037892;28;20460;-64
2021/12/19 01:55:32;;;;;;;2.77;2.57;;;20.10;41.00;;;;;;5038356;28;20447;-64
2021/12/19 01:57:58;;;;;;;3.53;3.33;;;20.10;41.00;;;;;;5040698;28;20875;-64
2021/12/19 02:00:27;;;;;;;3.23;3.03;;;20.00;41.00;;;;;;5040353;28;20511;-65
2021/12/19 02:02:54;;;;;;;2.73;2.53;;;20.10;41.10;;;;;;5035191;28;20836;-64
2021/12/19 02:05:19;;;;;;;3.00;2.80;;;20.00;41.00;;;;;;5037931;28;20451;-64
2021/12/19 02:07:48;;;;;;;3.00;2.80;;;20.00;41.00;;;;;;5038725;28;20883;-64
2021/12/19 02:10:19;;;;;;;2.50;2.40;;;20.00;41.00;;;;;;5037954;28;20705;-64
2021/12/19 02:12:47;;;;;;;3.00;2.80;;;20.00;41.00;;;;;;5039444;28;21157;-64
2021/12/19 02:15:24;;;;;;;3.00;2.80;;;20.00;41.10;;;;;;5038978;28;20798;-64
2021/12/19 02:17:52;;;;;;;3.27;2.97;;;20.00;41.10;;;;;;5040475;28;21008;-65
2021/12/19 02:20:20;;;;;;;2.60;2.40;;;20.00;41.10;;;;;;5037499;28;20520;-64
2021/12/19 02:22:45;;;;;;;2.60;2.40;;;20.00;41.00;;;;;;5039522;28;20452;-64
2021/12/19 02:25:14;;;;;;;2.43;2.33;;;20.00;41.00;;;;;;5040256;28;20447;-64
2021/12/19 02:27:40;;;;;;;2.90;2.70;;;20.00;41.00;;;;;;5035919;28;20258;-64
2021/12/19 02:30:08;;;;;;;2.83;2.63;;;20.00;41.00;;;;;;5038282;28;20473;-64
2021/12/19 02:32:35;;;;;;;2.33;2.23;;;20.00;41.00;;;;;;5042630;28;20228;-64
2021/12/19 02:35:06;;;;;;;2.37;2.23;;;20.00;41.10;;;;;;5038799;28;20448;-64
2021/12/19 02:40:29;;;;;;;2.60;2.40;;;20.00;41.10;;;;;;5043924;28;20497;-64
2021/12/19 02:48:26;;;;;;;2.57;2.37;;;20.00;41.10;;;;;;5044239;28;20506;-64
2021/12/19 02:50:54;;;;;;;2.40;2.20;;;19.90;41.00;;;;;;5044656;28;20528;-64
2021/12/19 02:53:41;;;;;;;2.57;2.37;;;19.90;41.80;;;;;;5042446;28;20219;-64
2021/12/19 02:56:10;;;;;;;2.90;2.70;;;19.90;41.00;;;;;;5041279;28;20483;-64
2021/12/19 02:58:38;;;;;;;2.63;2.43;;;19.90;41.00;;;;;;5040126;28;20456;-64
2021/12/19 03:01:09;;;;;;;2.40;2.30;;;19.90;41.00;;;;;;5043028;28;20446;-65
2021/12/19 03:03:35;;;;;;;2.33;2.23;;;19.90;41.10;;;;;;5042060;28;20960;-65
2021/12/19 03:06:01;;;;;;;2.40;2.20;;;19.90;41.00;;;;;;5043256;28;20474;-65
2021/12/19 03:08:29;;;;;;;2.60;2.40;;;19.90;41.00;;;;;;5042003;28;20430;-64
2021/12/19 03:18:53;;;;;;;2.10;2.00;;;19.90;41.10;;;;;;5039857;28;20470;-64
2021/12/19 03:21:23;;;;;;;2.10;2.00;;;19.90;41.00;;;;;;5044875;28;20453;-64
2021/12/19 03:23:49;;;;;;;2.43;2.23;;;19.90;41.10;;;;;;5044422;28;20214;-65
2021/12/19 03:26:15;;;;;;;2.37;2.17;;;19.90;41.10;;;;;;5042362;28;20448;-64
2021/12/19 03:28:41;;;;;;;2.30;2.10;;;19.90;41.10;;;;;;5039858;28;20279;-65
2021/12/19 03:31:06;;;;;;;2.60;2.17;;;19.90;41.10;;;;;;5042311;28;20309;-65
2021/12/19 03:33:35;;;;;;;2.40;1.93;;;19.90;41.10;;;;;;5041215;28;20246;-64
2021/12/19 03:36:01;;;;;;;1.73;1.63;;;19.90;41.10;;;;;;5041008;28;20210;-64
2021/12/19 03:38:27;;;;;;;2.13;2.03;;;19.90;41.10;;;;;;5039930;28;20448;-64
2021/12/19 03:41:07;;;;;;;2.17;2.07;;;19.90;41.90;;;;;;5042302;28;20422;-65
2021/12/19 03:43:33;;;;;;;2.33;2.13;;;19.90;41.10;;;;;;5042546;28;20317;-65
2021/12/19 03:45:59;;;;;;;2.63;2.50;;;19.90;41.10;;;;;;5039300;28;21032;-65
2021/12/19 03:48:25;;;;;;;2.27;2.17;;;19.90;41.10;;;;;;5040359;28;20691;-65
2021/12/19 03:50:50;;;;;;;3.57;2.10;;;19.90;41.10;;;;;;5038466;28;20590;-65
2021/12/19 03:53:18;;;;;;;1.97;1.87;;;19.90;41.10;;;;;;5041287;28;20298;-64
2021/12/19 03:55:45;;;;;;;2.00;1.90;;;19.90;41.10;;;;;;5037186;28;20239;-64
2021/12/19 03:58:11;;;;;;;2.20;2.10;;;19.90;41.10;;;;;;5039709;28;20979;-64
2021/12/19 04:00:37;;;;;;;2.03;1.93;;;19.90;41.10;;;;;;5043908;28;20455;-65
2021/12/19 04:03:06;;;;;;;2.00;1.90;;;19.80;41.00;;;;;;5042117;28;20284;-64
2021/12/19 04:05:33;;;;;;;2.47;2.27;;;19.80;41.00;;;;;;5038204;28;20444;-65
2021/12/19 04:07:59;;;;;;;2.10;2.00;;;19.80;41.00;;;;;;5037722;28;20418;-65
2021/12/19 04:10:27;;;;;;;2.30;2.20;;;19.80;41.00;;;;;;5041290;28;20459;-65
2021/12/19 04:12:54;;;;;;;1.83;1.73;;;19.80;41.00;;;;;;5039725;28;20444;-65
2021/12/19 04:15:20;;;;;;;1.80;1.70;;;19.80;41.00;;;;;;5041741;28;20940;-65
2021/12/19 04:17:45;;;;;;;1.90;1.80;;;19.80;41.00;;;;;;5040683;28;20463;-64
2021/12/19 04:20:11;;;;;;;1.90;1.80;;;19.80;41.00;;;;;;5041159;28;20222;-64
2021/12/19 04:22:37;;;;;;;2.07;1.97;;;19.80;41.00;;;;;;5039451;28;20238;-65
2021/12/19 04:25:04;;;;;;;2.10;2.00;;;19.80;41.00;;;;;;5042555;28;22027;-65
2021/12/19 04:27:30;;;;;;;2.70;1.93;;;19.80;41.00;;;;;;5043150;28;20977;-65
2021/12/19 04:29:56;;;;;;;1.60;1.50;;;19.80;41.10;;;;;;5036705;28;20445;-64
2021/12/19 04:32:28;;;;;;;2.03;1.83;;;19.80;41.00;;;;;;5043608;28;20222;-64
2021/12/19 04:34:53;;;;;;;2.23;2.13;;;19.80;41.00;;;;;;5034687;28;20219;-65
2021/12/19 04:37:48;;;;;;;1.90;1.80;;;19.80;41.00;;;;;;5044453;28;20467;-65
2021/12/19 04:40:13;;;;;;;2.37;1.70;;;19.80;41.00;;;;;;5041437;28;20247;-64
2021/12/19 04:51:11;;;;;;;1.80;1.70;;;19.80;41.10;;;;;;5035823;28;20478;-64
2021/12/19 05:01:59;;;;;;;1.70;1.60;;;19.70;41.00;;;;;;5041190;28;20524;-64
2021/12/19 05:15:27;;;;;;;1.77;1.67;;;19.70;41.10;;;;;;5020917;28;20448;-63
2021/12/19 05:18:00;;;;;;;2.07;1.97;;;19.70;41.10;;;;;;5015433;28;20549;-65
2021/12/19 05:20:28;;;;;;;1.67;1.57;;;19.70;41.10;;;;;;5018684;28;20543;-65
2021/12/19 05:23:00;;;;;;;1.80;1.70;;;19.70;41.20;;;;;;5018575;28;20436;-66
2021/12/19 05:25:26;;;;;;;1.80;1.70;;;19.70;41.20;;;;;;5017637;28;20465;-65
2021/12/19 05:27:54;;;;;;;1.80;1.70;;;19.70;41.10;;;;;;5017099;28;20452;-65
2021/12/19 05:30:20;;;;;;;1.40;1.30;;;19.70;41.10;;;;;;5019313;28;20223;-65
2021/12/19 05:32:48;;;;;;;1.53;1.43;;;19.70;41.10;;;;;;5017191;28;20450;-65
2021/12/19 05:35:19;;;;;;;2.00;1.80;;;19.70;41.10;;;;;;5018296;28;20453;-65
2021/12/19 05:45:57;;;;;;;1.93;1.67;;;19.70;41.10;;;;;;5040180;28;20456;-64
2021/12/19 05:48:23;;;;;;;1.40;1.30;;;19.70;41.10;;;;;;5039641;28;20812;-64
2021/12/19 05:50:49;;;;;;;1.73;1.30;;;19.70;41.10;;;;;;5035500;28;20864;-64
2021/12/19 05:53:15;;;;;;;1.33;1.23;;;19.70;41.10;;;;;;5038660;28;20342;-65
2021/12/19 05:55:41;;;;;;;1.80;1.70;;;19.70;41.10;;;;;;5035416;28;20247;-65
2021/12/19 05:58:07;;;;;;;2.30;1.90;;;19.70;41.10;;;;;;5041633;28;20458;-65
2021/12/19 06:00:32;;;;;;;1.43;1.33;;;19.70;41.10;;;;;;5041674;28;20215;-65
2021/12/19 06:02:59;;;;;;;1.57;1.47;;;19.70;41.10;;;;;;5039340;28;20234;-65
2021/12/19 06:05:25;;;;;;;1.93;1.80;;;19.70;41.10;;;;;;5039411;28;20304;-67
2021/12/19 06:07:51;;;;;;;1.37;1.27;;;19.70;41.10;;;;;;5038308;28;20479;-63
2021/12/19 06:10:17;;;;;;;1.60;1.40;;;19.70;41.10;;;;;;5037029;28;20863;-65
2021/12/19 06:12:43;;;;;;;1.70;1.60;;;19.70;41.80;;;;;;5038995;28;20215;-65
2021/12/19 06:15:10;;;;;;;1.40;1.30;;;19.70;41.10;;;;;;5044052;28;20433;-65
2021/12/19 06:17:38;;;;;;;1.77;1.67;;;19.70;41.10;;;;;;5046034;28;20656;-65
2021/12/19 06:20:05;;;;;;;1.63;1.53;;;19.70;41.10;;;;;;5041706;28;20975;-65
2021/12/19 06:22:31;;;;;;;1.80;1.70;;;19.70;41.10;;;;;;5046645;28;20440;-65
2021/12/19 06:24:56;;;;;;;1.70;1.40;;;19.70;41.20;;;;;;5041871;28;20869;-65
2021/12/19 06:27:22;;;;;;;1.70;1.60;;;19.70;41.10;;;;;;5041242;28;20211;-64
2021/12/19 06:29:49;;;;;;;1.43;1.33;;;19.70;41.10;;;;;;5045886;28;20207;-64
2021/12/19 06:32:15;;;;;;;1.70;1.60;;;19.80;41.10;;;;;;5041409;28;20269;-64
2021/12/19 06:34:41;;;;;;;2.10;1.73;;;19.80;41.10;;;;;;5045411;28;20819;-65
2021/12/19 06:37:09;;;;;;;1.43;1.33;;;19.80;41.10;;;;;;5040543;28;20464;-64
2021/12/19 06:39:37;;;;;;;1.87;1.50;;;19.80;41.50;;;;;;5047650;28;20214;-64
2021/12/19 06:42:04;;;;;;;2.30;1.60;;;19.80;41.10;;;;;;5040830;28;20439;-64
2021/12/19 06:44:30;;;;;;;1.80;1.50;;;19.70;41.20;;;;;;5043146;28;20453;-64
2021/12/19 06:46:56;;;;;;;2.50;1.40;;;19.70;41.10;;;;;;5040439;28;20451;-64
2021/12/19 06:49:21;;;;;;;1.80;1.70;;;19.70;41.10;;;;;;5042731;28;20454;-64
2021/12/19 06:51:47;;;;;;;1.60;1.50;;;19.70;41.10;;;;;;5041675;28;20219;-64
2021/12/19 06:54:12;;;;;;;2.40;1.40;;;19.70;41.20;;;;;;5041494;28;20223;-64
2021/12/19 06:56:38;;;;;;;1.70;1.60;;;19.70;41.20;;;;;;5044579;28;20623;-63
2021/12/19 06:59:04;;;;;;;1.83;1.73;;;19.70;41.30;;;;;;5044285;28;20211;-65
2021/12/19 07:01:29;;;;;;;1.50;1.40;;;19.70;41.30;;;;;;5041560;28;20296;-64
2021/12/19 07:03:55;;;;;;;4.07;2.10;;;19.70;41.30;;;;;;5042229;28;20221;-64
2021/12/19 07:06:21;;;;;;;4.63;1.67;;;19.70;41.30;;;;;;5047267;28;20227;-64
2021/12/19 07:08:46;;;;;;;2.50;1.77;;;19.70;41.20;;;;;;5041813;28;20219;-64
2021/12/19 07:11:12;;;;;;;1.80;1.60;;;19.70;41.30;;;;;;5044497;28;20269;-64
2021/12/19 07:13:38;;;;;;;1.70;1.60;;;19.70;41.30;;;;;;5040805;28;20227;-64
2021/12/19 07:16:06;;;;;;;2.00;1.90;;;19.70;41.30;;;;;;5045204;28;20452;-64
2021/12/19 07:18:32;;;;;;;1.80;1.70;;;19.70;41.30;;;;;;5040722;28;20276;-64
2021/12/19 07:20:58;;;;;;;1.40;1.30;;;19.70;41.30;;;;;;5039691;28;20447;-63
2021/12/19 07:23:23;;;;;;;4.23;1.70;;;19.70;41.30;;;;;;5043385;28;20452;-63
2021/12/19 07:25:49;;;;;;;3.20;1.73;;;19.70;41.30;;;;;;5042678;28;20215;-63
2021/12/19 07:28:15;;;;;;;3.27;2.57;;;19.70;41.30;;;;;;5046169;28;20655;-64
2021/12/19 07:30:42;;;;;;;2.30;2.10;;;19.70;41.30;;;;;;5040201;28;20447;-63
2021/12/19 07:33:10;;;;;;;2.37;2.10;;;19.70;41.30;;;;;;5041789;28;20301;-63
2021/12/19 07:35:38;;;;;;;2.40;2.20;;;19.70;41.30;;;;;;5038546;28;20457;-64
2021/12/19 07:38:05;;;;;;;2.27;2.13;;;19.70;41.30;;;;;;5040933;28;20452;-64
2021/12/19 07:40:36;;;;;;;3.20;2.90;;;19.70;41.30;;;;;;5039450;28;20448;-64
2021/12/19 07:43:10;;;;;;;2.90;2.70;;;19.70;41.30;;;;;;5044833;28;20521;-64
2021/12/19 07:45:36;;;;;;;3.33;2.63;;;19.70;41.20;;;;;;5039316;28;20432;-64
2021/12/19 07:48:02;;;;;;;4.50;3.60;;;19.70;41.30;;;;;;5037660;28;20415;-63
2021/12/19 07:50:29;;;;;;;3.87;3.33;;;19.80;41.30;;;;;;5040924;28;20448;-63
2021/12/19 07:52:55;;;;;;;3.60;3.20;;;19.80;41.30;;;;;;5043703;28;20451;-63
2021/12/19 07:55:22;;;;;;;10.67;4.77;;;19.80;41.30;;;;;;5040803;28;20457;-63
2021/12/19 07:57:47;;;;;;;5.20;3.40;;;19.70;41.20;;;;;;5040017;28;20517;-63
2021/12/19 08:00:14;;;;;;;3.77;3.57;;;19.80;41.30;;;;;;5043891;28;20444;-63
2021/12/19 08:02:41;;;;;;;4.43;4.03;;;19.80;42.10;;;;;;5041093;28;20218;-63
2021/12/19 08:05:08;;;;;;;4.30;4.00;;;19.80;41.30;;;;;;5039772;28;20418;-63
2021/12/19 08:07:33;;;;;;;4.43;4.13;;;19.70;41.30;;;;;;5041155;28;20875;-62
2021/12/19 08:11:39;;;;;;;5.23;4.60;;;19.80;41.40;;;;;;5042855;28;20934;-62
2021/12/19 08:13:03;;;;;;;13.90;4.33;;;19.80;41.40;;;;;;5042657;28;20333;-64
2021/12/19 08:15:28;;;;;;;89.10;9.33;;;19.80;41.40;;;;;;5036669;28;20456;-64
2021/12/19 08:17:54;;;;;;;59.77;10.83;;;19.80;41.30;;;;;;5041970;28;20979;-65
2021/12/19 08:20:20;;;;;;;50.43;9.00;;;19.80;41.30;;;;;;5040311;28;20227;-65
2021/12/19 08:22:50;;;;;;;29.40;7.87;;;19.90;41.30;;;;;;5037549;28;20219;-64
2021/12/19 08:25:16;;;;;;;20.97;7.27;;;19.90;41.30;;;;;;5041538;28;20298;-65
2021/12/19 08:27:41;;;;;;;26.03;8.03;;;19.90;41.30;;;;;;5042880;28;20544;-65
2021/12/19 08:30:10;;;;;;;22.50;6.37;;;19.90;41.30;;;;;;5042092;28;20656;-65
2021/12/19 08:32:37;;;;;;;20.03;7.37;;;19.90;41.30;;;;;;5041000;28;20688;-66
2021/12/19 08:35:05;;;;;;;17.80;5.63;;;19.90;41.50;;;;;;5039660;28;20523;-65
2021/12/19 08:37:30;;;;;;;31.77;9.40;;;19.90;41.50;;;;;;5037956;28;20493;-64
2021/12/19 08:39:56;;;;;;;14.67;7.40;;;19.90;41.40;;;;;;5037624;28;20452;-64
2021/12/19 08:42:22;;;;;;;23.70;7.00;;;20.00;41.40;;;;;;5046796;28;20223;-64
2021/12/19 08:44:48;;;;;;;23.23;7.53;;;20.00;41.40;;;;;;5040899;28;20218;-64
2021/12/19 08:47:15;;;;;;;8.70;6.67;;;20.00;41.30;;;;;;5042334;28;20526;-64
2021/12/19 08:49:41;;;;;;;8.87;5.97;;;20.00;41.20;;;;;;5036678;28;20415;-64
2021/12/19 08:52:09;;;;;;;11.13;6.27;;;20.10;41.20;;;;;;5044627;28;20484;-64
2021/12/19 08:54:35;;;;;;;24.00;7.90;;;20.10;41.20;;;;;;5037438;28;20947;-64
2021/12/19 08:57:00;;;;;;;18.67;5.67;;;20.10;41.10;;;;;;5037444;28;20463;-62
2021/12/19 08:59:29;;;;;;;9.13;6.50;;;20.10;41.10;;;;;;5039323;28;20222;-63
2021/12/19 09:01:57;;;;;;;11.97;6.57;;;20.10;41.10;;;;;;5041946;28;20667;-63
2021/12/19 09:04:23;;;;;;;5.97;4.87;;;20.20;41.10;;;;;;5041468;28;20534;-69
2021/12/19 09:06:49;;;;;;;10.33;5.50;;;20.20;41.10;;;;;;5042532;28;20563;-64
2021/12/19 09:09:15;;;;;;;8.87;5.83;;;20.30;41.00;;;;;;5037963;28;20523;-68
2021/12/19 09:11:40;;;;;;;5.93;4.90;;;20.30;40.80;;;;;;5041019;28;20230;-66
2021/12/19 09:14:06;;;;;;;14.73;5.70;;;20.40;40.80;;;;;;5040026;28;20604;-68
2021/12/19 09:16:32;;;;;;;8.43;5.17;;;20.40;40.70;;;;;;5037717;28;20645;-70
2021/12/19 09:18:58;;;;;;;13.80;4.70;;;20.50;40.80;;;;;;5038847;28;20230;-68
2021/12/19 09:21:23;;;;;;;14.50;4.87;;;20.50;40.70;;;;;;5037756;28;20584;-68
2021/12/19 09:23:49;;;;;;;5.57;4.70;;;20.50;40.80;;;;;;5037675;28;20218;-67
2021/12/19 09:26:14;;;;;;;11.00;4.43;;;20.50;40.80;;;;;;5037298;28;20225;-67
2021/12/19 09:28:40;;;;;;;13.50;5.37;;;20.50;40.80;;;;;;5035163;28;20312;-68
2021/12/19 09:31:06;;;;;;;4.87;4.37;;;20.50;40.80;;;;;;5037955;28;20226;-68
2021/12/19 09:33:32;;;;;;;14.43;6.43;;;20.50;40.90;;;;;;5038804;28;20215;-68
2021/12/19 09:35:59;;;;;;;8.20;5.20;;;20.50;41.00;;;;;;5041809;28;20298;-68
2021/12/19 09:38:25;;;;;;;5.93;4.80;;;20.50;41.00;;;;;;5039827;28;20459;-65
2021/12/19 09:40:59;;;;;;;35.87;8.83;;;20.50;41.10;;;;;;5035827;28;20436;-66
2021/12/19 09:43:43;;;;;;;30.13;6.40;;;20.50;41.90;;;;;;5036028;28;20922;-65
2021/12/19 09:46:18;;;;;;;18.93;5.77;;;20.50;41.20;;;;;;5036452;28;20461;-65
2021/12/19 09:48:47;;;;;;;8.20;4.40;;;20.50;41.10;;;;;;5028849;28;20459;-66
2021/12/19 09:51:14;;;;;;;11.27;5.00;;;20.50;41.10;;;;;;5026995;28;20459;-66
2021/12/19 09:53:40;;;;;;;9.63;5.13;;;20.50;41.20;;;;;;5034628;28;20895;-66
2021/12/19 09:56:07;;;;;;;13.10;4.90;;;20.50;41.20;;;;;;5031431;28;21014;-66
2021/12/19 09:58:35;;;;;;;26.03;5.70;;;20.50;41.20;;;;;;5026882;28;20559;-65
2021/12/19 10:01:04;;;;;;;16.60;5.87;;;20.50;41.30;;;;;;5037225;28;20448;-66
2021/12/19 10:03:30;;;;;;;16.47;6.10;;;20.50;41.30;;;;;;5039824;28;20526;-66
2021/12/19 10:06:31;;;;;;;12.87;6.87;;;20.50;41.50;;;;;;5038300;28;20527;-66
2021/12/19 10:09:18;;;;;;;64.63;10.60;;;20.50;41.40;;;;;;5005410;28;20238;-65
2021/12/19 10:14:28;;;;;;;33.10;9.33;;;20.60;41.40;;;;;;5035327;28;20440;-66
2021/12/19 10:16:59;;;;;;;52.57;10.30;;;20.60;41.40;;;;;;5038102;28;20455;-70
2021/12/19 10:19:45;;;;;;;32.23;9.17;;;20.60;41.40;;;;;;5026963;28;20457;-66
2021/12/19 10:22:26;;;;;;;29.93;8.93;;;20.60;41.40;;;;;;5038361;28;20436;-66
2021/12/19 10:24:53;;;;;;;28.73;8.77;;;20.60;41.50;;;;;;5039966;28;20768;-66
2021/12/19 10:27:31;;;;;;;14.97;6.63;;;20.60;41.50;;;;;;5039318;28;20459;-66
2021/12/19 10:29:57;;;;;;;22.90;7.67;;;20.60;41.60;;;;;;5036784;28;20426;-66
2021/12/19 10:32:23;;;;;;;22.23;6.23;;;20.60;41.60;;;;;;5035826;28;20583;-65
2021/12/19 10:34:49;;;;;;;18.60;6.53;;;20.50;41.60;;;;;;5036316;28;21162;-65
2021/12/19 10:37:34;;;;;;;13.70;6.90;;;20.50;41.60;;;;;;5036332;28;20227;-64
2021/12/19 10:40:02;;;;;;;20.63;6.43;;;20.50;41.60;;;;;;5039085;28;20223;-64
2021/12/19 10:42:34;;;;;;;9.43;5.63;;;20.50;41.50;;;;;;5035521;28;20459;-63
2021/12/19 10:47:44;;;;;;;10.00;4.90;;;20.60;41.40;;;;;;5037546;28;20467;-66
2021/12/19 10:50:09;;;;;;;14.00;5.30;;;20.60;41.40;;;;;;5040269;28;20448;-64
2021/12/19 10:52:38;;;;;;;105.83;26.50;;;20.60;41.20;;;;;;5037228;28;20223;-62
2021/12/19 10:55:10;;;;;;;131.27;38.67;;;20.60;41.20;;;;;;5042507;28;20223;-64
2021/12/19 10:57:40;;;;;;;107.73;31.80;;;20.60;41.10;;;;;;5036529;28;20480;-62
2021/12/19 11:00:22;;;;;;;86.33;27.07;;;20.70;41.10;;;;;;5041842;28;20515;-63
2021/12/19 11:02:47;;;;;;;71.43;23.60;;;20.70;41.10;;;;;;5040971;28;20565;-65
2021/12/19 11:05:41;;;;;;;53.60;21.00;;;20.70;41.10;;;;;;5041718;28;20980;-64
2021/12/19 11:08:08;;;;;;;46.13;18.37;;;20.70;41.10;;;;;;5041274;28;20345;-64
2021/12/19 11:10:37;;;;;;;41.73;15.20;;;20.70;41.00;;;;;;5043112;28;20448;-63
2021/12/19 11:13:14;;;;;;;35.50;14.90;;;20.70;41.00;;;;;;5038388;28;20447;-62
2021/12/19 11:15:41;;;;;;;31.20;12.40;;;20.70;41.00;;;;;;5041451;28;20509;-63
2021/12/19 11:18:07;;;;;;;31.53;10.73;;;20.70;41.00;;;;;;5042566;28;20471;-63
2021/12/19 11:20:33;;;;;;;22.80;10.60;;;20.80;41.10;;;;;;5038949;28;20459;-63
2021/12/19 11:22:59;;;;;;;18.93;9.10;;;20.80;41.00;;;;;;5043275;28;20268;-64
2021/12/19 11:25:26;;;;;;;19.07;8.87;;;20.80;41.10;;;;;;5042010;28;20254;-63
2021/12/19 11:27:52;;;;;;;17.37;9.00;;;20.80;41.10;;;;;;5043902;28;20227;-63
2021/12/19 11:30:18;;;;;;;17.97;7.83;;;20.80;41.00;;;;;;5040529;28;20465;-63
2021/12/19 11:33:29;;;;;;;20.80;9.47;;;20.80;41.00;;;;;;5039291;28;20515;-63
2021/12/19 11:35:56;;;;;;;15.73;7.77;;;20.80;41.00;;;;;;5034354;28;20539;-64
2021/12/19 11:38:23;;;;;;;12.00;6.80;;;20.90;41.10;;;;;;5040441;28;20467;-63
2021/12/19 11:40:51;;;;;;;11.50;6.83;;;20.90;41.10;;;;;;5043660;28;20982;-64
2021/12/19 11:43:18;;;;;;;15.17;6.30;;;20.90;41.20;;;;;;5043095;28;20497;-65
2021/12/19 11:45:55;;;;;;;9.47;6.30;;;20.90;41.20;;;;;;5041338;28;20455;-65
2021/12/19 11:48:27;;;;;;;8.70;6.43;;;20.90;41.20;;;;;;5043507;28;21023;-64
2021/12/19 11:50:54;;;;;;;8.53;5.73;;;20.90;41.30;;;;;;5043222;28;20479;-64
2021/12/19 11:53:31;;;;;;;10.07;5.53;;;20.90;41.30;;;;;;5038044;28;20552;-63
2021/12/19 11:56:10;;;;;;;7.40;5.63;;;20.90;41.20;;;;;;5037869;28;20479;-64
2021/12/19 11:58:50;;;;;;;11.90;5.30;;;20.90;41.30;;;;;;5042242;28;20942;-64
2021/12/19 12:01:23;;;;;;;7.87;5.30;;;20.90;41.30;;;;;;5041403;28;20498;-64
2021/12/19 12:04:02;;;;;;;9.90;4.93;;;20.90;41.30;;;;;;5040371;28;20494;-64
2021/12/19 12:06:32;;;;;;;6.20;4.70;;;21.00;41.10;;;;;;5044076;28;20444;-63
2021/12/19 12:09:07;;;;;;;6.10;4.17;;;21.00;41.00;;;;;;5040004;28;24320;-64
2021/12/19 12:12:03;;;;;;;7.77;3.90;;;21.00;40.90;;;;;;5041566;28;20451;-64
2021/12/19 12:14:34;;;;;;;4.80;4.30;;;21.00;40.90;;;;;;5043828;28;20441;-64
2021/12/19 12:17:08;;;;;;;5.33;3.97;;;21.00;41.00;;;;;;5042150;28;20459;-64
2021/12/19 12:19:46;;;;;;;4.80;4.00;;;21.00;40.90;;;;;;5037143;28;20433;-63
2021/12/19 12:22:25;;;;;;;5.00;4.00;;;21.00;40.90;;;;;;5042779;28;20809;-63
2021/12/19 12:25:06;;;;;;;5.83;3.60;;;21.00;41.00;;;;;;5040635;28;20464;-62
2021/12/19 12:27:43;;;;;;;3.70;3.40;;;21.00;41.00;;;;;;5040118;28;20510;-63
2021/12/19 12:30:14;;;;;;;6.90;4.10;;;21.00;41.10;;;;;;5037509;28;20464;-63
2021/12/19 12:32:40;;;;;;;4.73;4.30;;;21.00;41.20;;;;;;5077197;28;20848;-62
2021/12/19 12:35:07;;;;;;;5.70;4.10;;;21.00;41.30;;;;;;5039309;28;20440;-62
2021/12/19 12:37:33;;;;;;;4.57;4.17;;;21.00;41.30;;;;;;5040413;28;20439;-62
2021/12/19 12:40:29;;;;;;;5.40;3.70;;;21.00;41.30;;;;;;5040735;28;20460;-62
2021/12/19 12:42:59;;;;;;;5.00;4.00;;;21.00;41.30;;;;;;5043435;28;20447;-61
2021/12/19 12:45:26;;;;;;;5.60;4.30;;;21.00;41.50;;;;;;5038652;28;20448;-63
2021/12/19 12:47:52;;;;;;;5.90;4.50;;;21.00;41.40;;;;;;5040066;28;20456;-62
2021/12/19 12:50:17;;;;;;;5.30;4.27;;;21.00;41.50;;;;;;5041250;28;20498;-63
2021/12/19 12:52:43;;;;;;;6.37;4.30;;;21.00;41.50;;;;;;5041429;28;20221;-63
2021/12/19 12:55:09;;;;;;;4.30;3.90;;;20.90;41.40;;;;;;5039575;28;20747;-63
2021/12/19 12:57:36;;;;;;;4.57;4.17;;;20.90;41.40;;;;;;5039375;28;20726;-63
2021/12/19 13:00:03;;;;;;;5.57;4.70;;;20.90;41.40;;;;;;5042193;28;20460;-62
2021/12/19 13:02:41;;;;;;;5.90;3.50;;;20.90;41.40;;;;;;5039557;28;20447;-63
2021/12/19 13:05:12;;;;;;;5.00;3.77;;;20.90;41.40;;;;;;5040833;28;20436;-62
2021/12/19 13:07:38;;;;;;;5.63;3.77;;;20.90;41.50;;;;;;5040141;28;20460;-63
2021/12/19 13:10:06;;;;;;;9.53;4.30;;;20.90;41.30;;;;;;5044992;28;20448;-63
2021/12/19 13:12:36;;;;;;;6.87;4.23;;;20.90;41.20;;;;;;5041610;28;20451;-62
2021/12/19 13:15:06;;;;;;;8.10;4.10;;;20.90;41.00;;;;;;5037335;28;20452;-62
2021/12/19 13:17:34;;;;;;;7.40;3.70;;;20.90;40.80;;;;;;5041649;28;20466;-63
2021/12/19 13:20:06;;;;;;;10.13;5.63;;;20.90;40.50;;;;;;5038507;28;20459;-63
2021/12/19 13:22:36;;;;;;;8.23;5.20;;;20.90;40.30;;;;;;5039257;28;20505;-62
2021/12/19 13:25:15;;;;;;;6.77;5.03;;;20.90;40.00;;;;;;5044387;28;20444;-62
2021/12/19 13:27:52;;;;;;;8.03;4.87;;;20.80;39.90;;;;;;5039429;28;20529;-62
2021/12/19 13:30:38;;;;;;;9.53;4.50;;;20.90;40.00;;;;;;5037019;28;20465;-62
2021/12/19 13:33:05;;;;;;;8.67;3.63;;;20.80;39.90;;;;;;5040443;28;20455;-62
2021/12/19 13:35:42;;;;;;;3.70;2.97;;;20.80;39.90;;;;;;5039533;28;20451;-62
2021/12/19 13:38:17;;;;;;;5.23;3.00;;;20.80;40.50;;;;;;5038004;28;20495;-62
2021/12/19 13:40:49;;;;;;;3.90;3.47;;;20.70;39.70;;;;;;5035106;28;20467;-62
2021/12/19 13:43:17;;;;;;;4.27;2.57;;;20.70;39.80;;;;;;5040804;28;21188;-61
2021/12/19 13:45:50;;;;;;;4.17;3.20;;;20.70;39.80;;;;;;5037297;28;20460;-61
2021/12/19 13:48:29;;;;;;;3.50;2.90;;;20.70;39.80;;;;;;5039873;28;20816;-61
2021/12/19 13:51:23;;;;;;;3.73;3.43;;;20.70;39.80;;;;;;5036451;28;20465;-61
2021/12/19 13:53:52;;;;;;;2.67;2.47;;;20.60;39.70;;;;;;5040204;28;20455;-62